createdAt,value
2019-01-21T00:01:14.495Z,17.13
2019-01-21T00:03:41.166Z,18.47
2019-01-21T00:06:07.839Z,17.40
2019-01-21T00:08:34.510Z,18.57
2019-01-21T00:11:01.079Z,18.97
2019-01-21T00:13:27.742Z,18.60
2019-01-21T00:15:54.430Z,17.23
2019-01-21T00:18:21.198Z,18.33
2019-01-21T00:20:47.857Z,18.23
2019-01-21T00:23:14.538Z,16.53
2019-01-21T00:25:41.122Z,16.73
2019-01-21T00:28:07.565Z,18.73
2019-01-21T00:30:36.331Z,18.67
2019-01-21T00:33:03.045Z,17.37
2019-01-21T00:35:29.739Z,17.90
2019-01-21T00:37:56.017Z,19.23
2019-01-21T00:40:58.675Z,20.80
2019-01-21T00:46:33.681Z,17.83
2019-01-21T00:49:12.368Z,18.47
2019-01-21T00:57:30.151Z,17.50
2019-01-21T01:05:54.265Z,15.57
2019-01-21T01:20:41.906Z,16.50
2019-01-21T01:37:54.417Z,16.97
2019-01-21T01:40:21.041Z,17.00
2019-01-21T01:42:47.662Z,19.13
2019-01-21T01:45:16.048Z,20.93
2019-01-21T01:47:44.831Z,18.83
2019-01-21T01:50:11.575Z,20.47
2019-01-21T01:52:38.326Z,18.17
2019-01-21T01:55:07.662Z,19.87
2019-01-21T01:57:34.350Z,20.60
2019-01-21T02:00:00.774Z,20.87
2019-01-21T02:02:27.073Z,20.93
2019-01-21T02:04:53.410Z,20.60
2019-01-21T02:07:20.109Z,21.63
2019-01-21T02:09:48.322Z,22.53
2019-01-21T02:12:15.020Z,20.00
2019-01-21T02:14:41.686Z,19.43
2019-01-21T02:17:08.007Z,17.80
2019-01-21T02:19:37.335Z,17.73
2019-01-21T02:22:03.730Z,18.97
2019-01-21T02:24:32.300Z,20.83
2019-01-21T02:27:02.402Z,18.43
2019-01-21T02:29:33.948Z,18.87
2019-01-21T02:32:14.794Z,18.47
2019-01-21T02:34:47.879Z,20.10
2019-01-21T02:37:26.192Z,18.83
2019-01-21T02:40:14.762Z,17.57
2019-01-21T02:43:04.549Z,19.13
2019-01-21T02:45:33.063Z,18.80
2019-01-21T02:48:06.181Z,19.70
2019-01-21T02:50:45.411Z,18.83
2019-01-21T02:53:30.566Z,17.60
2019-01-21T02:56:00.613Z,18.63
2019-01-21T02:58:53.265Z,19.07
2019-01-21T03:01:24.724Z,17.53
2019-01-21T03:03:53.269Z,20.10
2019-01-21T03:06:21.853Z,20.47
2019-01-21T03:09:00.842Z,18.47
2019-01-21T03:11:29.389Z,17.93
2019-01-21T03:14:06.848Z,17.47
2019-01-21T03:16:59.419Z,17.40
2019-01-21T03:19:54.614Z,16.70
2019-01-21T03:22:38.373Z,17.13
2019-01-21T03:25:17.381Z,17.40
2019-01-21T03:28:02.305Z,17.67
2019-01-21T03:30:50.103Z,18.57
2019-01-21T03:33:45.751Z,17.53
2019-01-21T03:36:18.711Z,18.77
2019-01-21T03:38:53.055Z,18.03
2019-01-21T03:41:21.637Z,15.73
2019-01-21T03:44:09.455Z,20.57
2019-01-21T03:46:48.890Z,17.60
2019-01-21T03:49:18.934Z,16.33
2019-01-21T03:52:17.657Z,19.30
2019-01-21T03:54:44.722Z,18.47
2019-01-21T03:57:12.626Z,20.53
2019-01-21T03:59:47.314Z,18.37
2019-01-21T04:02:20.456Z,18.73
2019-01-21T04:04:49.057Z,18.70
2019-01-21T04:07:20.437Z,17.33
2019-01-21T04:09:53.477Z,17.70
2019-01-21T04:12:29.550Z,18.97
2019-01-21T04:15:11.262Z,20.03
2019-01-21T04:17:39.819Z,16.60
2019-01-21T04:20:34.102Z,16.70
2019-01-21T04:23:06.002Z,17.73
2019-01-21T04:25:42.157Z,16.47
2019-01-21T04:28:10.735Z,18.20
2019-01-21T04:30:43.590Z,16.83
2019-01-21T04:33:16.650Z,17.73
2019-01-21T04:35:45.202Z,16.03
2019-01-21T04:38:39.520Z,17.47
2019-01-21T04:41:12.613Z,16.13
2019-01-21T04:43:43.801Z,18.30
2019-01-21T04:46:33.058Z,14.30
2019-01-21T04:49:06.139Z,16.70
2019-01-21T04:52:09.592Z,17.27
2019-01-21T04:54:47.035Z,16.90
2019-01-21T04:57:15.606Z,16.30
2019-01-21T05:00:06.339Z,15.47
2019-01-21T05:02:42.432Z,16.23
2019-01-21T05:05:11.009Z,15.53
2019-01-21T05:07:48.818Z,17.97
2019-01-21T05:10:20.194Z,15.63
2019-01-21T05:13:05.196Z,20.53
2019-01-21T05:15:38.693Z,20.20
2019-01-21T05:18:23.777Z,18.27
2019-01-21T05:21:04.236Z,21.40
2019-01-21T05:23:49.333Z,16.97
2019-01-21T05:26:22.363Z,16.03
2019-01-21T05:28:52.754Z,17.33
2019-01-21T05:31:45.490Z,18.17
2019-01-21T05:34:30.306Z,16.03
2019-01-21T05:37:15.285Z,17.63
2019-01-21T05:39:43.853Z,16.03
2019-01-21T05:42:12.445Z,16.50
2019-01-21T05:44:41.226Z,17.30
2019-01-21T05:47:26.335Z,16.50
2019-01-21T05:50:04.030Z,16.13
2019-01-21T05:52:52.098Z,14.03
2019-01-21T05:55:41.767Z,15.93
2019-01-21T05:58:10.561Z,15.93
2019-01-21T06:00:46.579Z,16.60
2019-01-21T06:03:33.224Z,16.07
2019-01-21T06:06:13.980Z,17.00
2019-01-21T06:09:06.605Z,16.40
2019-01-21T06:11:38.241Z,15.73
2019-01-21T06:14:09.656Z,15.83
2019-01-21T06:16:44.342Z,16.47
2019-01-21T06:19:19.007Z,17.03
2019-01-21T06:22:03.943Z,16.90
2019-01-21T06:24:32.514Z,15.20
2019-01-21T06:27:09.937Z,14.93
2019-01-21T06:29:38.521Z,15.47
2019-01-21T06:32:23.761Z,14.70
2019-01-21T06:35:01.248Z,15.90
2019-01-21T06:37:29.810Z,15.17
2019-01-21T06:40:07.421Z,16.10
2019-01-21T06:42:39.033Z,16.00
2019-01-21T06:45:07.875Z,15.40
2019-01-21T06:47:44.009Z,16.73
2019-01-21T06:50:14.497Z,16.03
2019-01-21T06:52:43.023Z,15.77
2019-01-21T06:55:17.521Z,14.20
2019-01-21T06:58:02.841Z,15.30
2019-01-21T07:00:40.178Z,15.80
2019-01-21T07:03:08.791Z,24.87
2019-01-21T07:05:37.373Z,18.90
2019-01-21T07:08:05.978Z,18.23
2019-01-21T07:10:34.584Z,18.40
2019-01-21T07:13:12.162Z,17.43
2019-01-21T07:29:41.417Z,14.70
2019-01-21T07:32:09.988Z,14.73
2019-01-21T09:08:37.656Z,14.80
2019-01-21T09:11:08.785Z,15.33
2019-01-21T09:13:43.486Z,14.87
2019-01-21T09:16:22.402Z,14.47
2019-01-21T09:35:44.389Z,14.37
2019-01-21T09:38:22.142Z,13.50
2019-01-21T09:40:58.521Z,13.03
2019-01-21T09:43:30.102Z,14.47
2019-01-21T09:46:10.489Z,14.23
2019-01-21T09:48:37.053Z,15.53
2019-01-21T09:51:04.158Z,14.50
2019-01-21T09:53:31.048Z,13.80
2019-01-21T09:55:59.625Z,13.27
2019-01-21T09:58:27.654Z,12.77
2019-01-21T10:00:57.167Z,14.83
2019-01-21T10:03:23.578Z,12.47
2019-01-21T10:05:52.435Z,14.47
2019-01-21T10:08:34.424Z,12.50
2019-01-21T10:11:11.861Z,14.20
2019-01-21T10:13:46.283Z,14.53
2019-01-21T10:16:40.378Z,13.27
2019-01-21T10:19:08.903Z,14.63
2019-01-21T10:21:43.314Z,14.07
2019-01-21T10:24:19.330Z,14.23
2019-01-21T10:26:54.401Z,14.63
2019-01-21T10:29:23.241Z,15.27
2019-01-21T10:31:59.580Z,15.27
2019-01-21T10:34:31.321Z,14.50
2019-01-21T10:37:25.341Z,15.00
2019-01-21T10:40:00.140Z,17.63
2019-01-21T10:42:32.900Z,15.53
2019-01-21T10:45:20.954Z,15.57
2019-01-21T10:47:53.860Z,15.27
2019-01-21T10:50:25.167Z,15.17
2019-01-21T10:53:02.165Z,15.80
2019-01-21T10:55:54.701Z,16.20
2019-01-21T10:58:29.047Z,15.10
2019-01-21T11:00:57.575Z,14.70
2019-01-21T11:03:27.670Z,13.20
2019-01-21T11:05:59.141Z,14.73
2019-01-21T11:08:27.774Z,14.53
2019-01-21T11:10:56.298Z,13.87
2019-01-21T11:13:36.725Z,13.77
2019-01-21T11:24:53.930Z,14.33
2019-01-21T11:27:32.407Z,15.70
2019-01-21T11:30:14.189Z,14.50
2019-01-21T11:32:54.692Z,14.27
2019-01-21T11:35:30.687Z,14.63
2019-01-21T11:38:02.261Z,15.10
2019-01-21T11:40:36.969Z,15.73
2019-01-21T12:47:13.526Z,16.27
2019-01-21T12:49:54.002Z,15.30
2019-01-21T12:52:22.565Z,16.03
2019-01-21T12:55:00.214Z,14.80
2019-01-21T12:57:34.500Z,14.77
2019-01-21T13:00:39.458Z,14.13
2019-01-21T13:03:22.967Z,15.10
2019-01-21T13:06:10.176Z,15.23
2019-01-21T13:08:44.591Z,17.60
2019-01-21T13:11:13.618Z,15.43
2019-01-21T13:13:58.973Z,15.90
2019-01-21T13:16:38.156Z,15.03
2019-01-21T13:19:14.449Z,15.10
2019-01-21T13:22:08.274Z,17.53
2019-01-21T13:25:11.663Z,18.77
2019-01-21T13:27:48.965Z,16.17
2019-01-21T13:30:21.834Z,16.17
2019-01-21T13:32:56.216Z,15.43
2019-01-21T13:35:27.590Z,17.57
2019-01-21T13:37:56.270Z,15.73
2019-01-21T13:40:35.363Z,16.27
2019-01-21T13:43:03.936Z,16.00
2019-01-21T13:45:33.199Z,16.00
2019-01-21T13:48:05.526Z,15.80
2019-01-21T13:50:37.193Z,16.33
2019-01-21T13:53:33.734Z,17.00
2019-01-21T13:56:24.967Z,16.23
2019-01-21T13:58:53.501Z,14.43
2019-01-21T14:01:27.410Z,15.63
2019-01-21T14:04:12.325Z,16.23
2019-01-21T14:07:00.365Z,15.50
2019-01-21T14:15:49.634Z,15.00
2019-01-21T14:18:20.997Z,15.07
2019-01-21T14:20:51.069Z,16.23
2019-01-21T14:23:33.400Z,14.07
2019-01-21T14:26:07.083Z,15.00
2019-01-21T14:28:55.465Z,16.47
2019-01-21T14:31:24.009Z,19.23
2019-01-21T14:33:52.721Z,17.20
2019-01-21T14:36:21.268Z,18.10
2019-01-21T14:38:52.528Z,16.00
2019-01-21T14:41:23.941Z,15.47
2019-01-21T14:43:58.269Z,15.67
2019-01-21T14:46:40.242Z,15.70
2019-01-21T14:49:31.679Z,14.40
2019-01-21T14:52:16.847Z,14.30
2019-01-21T14:54:45.380Z,15.67
2019-01-21T14:57:24.025Z,16.80
2019-01-21T15:00:22.665Z,14.30
2019-01-21T15:03:03.059Z,16.80
2019-01-21T15:05:46.614Z,14.23
2019-01-21T15:08:15.123Z,15.60
2019-01-21T15:10:46.453Z,15.33
2019-01-21T15:13:17.981Z,15.23
2019-01-21T15:15:50.875Z,14.60
2019-01-21T15:18:25.372Z,13.20
2019-01-21T15:20:57.778Z,13.70
2019-01-21T15:23:39.776Z,14.40
2019-01-21T15:26:23.493Z,13.87
2019-01-21T15:28:58.009Z,13.90
2019-01-21T15:31:59.905Z,13.70
2019-01-21T15:34:31.426Z,13.63
2019-01-21T15:37:02.973Z,14.17
2019-01-21T15:39:31.964Z,13.97
2019-01-21T15:42:00.640Z,14.97
2019-01-21T15:44:29.163Z,15.67
2019-01-21T15:47:04.956Z,13.97
2019-01-21T15:49:44.097Z,15.27
2019-01-21T15:52:12.654Z,15.67
2019-01-21T15:54:48.508Z,14.20
2019-01-21T15:57:20.136Z,14.17
2019-01-21T16:00:05.132Z,14.80
2019-01-21T16:02:39.550Z,14.07
2019-01-21T16:05:13.849Z,15.63
2019-01-21T16:07:42.375Z,17.37
2019-01-21T16:10:11.101Z,16.73
2019-01-21T16:12:45.700Z,14.90
2019-01-21T16:15:16.938Z,16.10
2019-01-21T16:17:45.448Z,15.00
2019-01-21T16:20:14.011Z,17.17
2019-01-21T16:23:08.049Z,16.53
2019-01-21T16:25:38.245Z,16.83
2019-01-21T16:28:24.189Z,15.73
2019-01-21T16:30:57.238Z,14.90
2019-01-21T16:33:43.962Z,14.50
2019-01-21T16:36:23.005Z,16.70
2019-01-21T16:38:53.134Z,15.73
2019-01-21T16:41:28.573Z,18.37
2019-01-21T16:43:55.177Z,17.00
2019-01-21T16:46:21.805Z,18.23
2019-01-21T16:48:48.419Z,16.70
2019-01-21T16:51:20.277Z,17.53
2019-01-21T16:53:43.249Z,16.80
2019-01-21T16:56:11.767Z,14.30
2019-01-21T16:58:38.414Z,15.73
2019-01-21T17:01:05.189Z,15.93
2019-01-21T17:03:31.934Z,16.20
2019-01-21T17:05:58.191Z,15.03
2019-01-21T17:08:25.146Z,16.70
2019-01-21T17:10:51.766Z,14.80
2019-01-21T17:13:18.388Z,15.37
2019-01-21T17:15:45.024Z,16.23
2019-01-21T17:18:11.282Z,16.33
2019-01-21T17:20:37.917Z,14.37
2019-01-21T17:23:04.534Z,15.03
2019-01-21T17:25:31.177Z,15.13
2019-01-21T17:27:57.434Z,15.60
2019-01-21T17:30:23.834Z,14.70
2019-01-21T17:32:51.108Z,15.80
2019-01-21T17:35:17.979Z,14.43
2019-01-21T17:37:44.703Z,15.90
2019-01-21T17:40:12.987Z,13.73
2019-01-21T17:42:39.593Z,15.70
2019-01-21T17:45:09.584Z,15.10
2019-01-21T17:47:36.156Z,16.33
2019-01-21T17:50:04.478Z,16.33
2019-01-21T17:52:31.773Z,17.57
2019-01-21T17:54:58.414Z,16.33
2019-01-21T17:57:25.029Z,16.30
2019-01-21T17:59:51.313Z,14.97
2019-01-21T18:02:17.607Z,16.73
2019-01-21T18:04:45.337Z,14.83
2019-01-21T18:07:11.946Z,15.30
2019-01-21T18:09:38.593Z,16.43
2019-01-21T18:12:04.861Z,17.00
2019-01-21T18:14:31.508Z,18.50
2019-01-21T18:16:58.906Z,16.57
2019-01-21T18:19:25.525Z,17.83
2019-01-21T18:21:52.049Z,16.07
2019-01-21T18:24:18.673Z,18.17
2019-01-21T18:26:45.306Z,18.53
2019-01-21T18:29:11.585Z,18.20
2019-01-21T18:31:38.230Z,16.00
2019-01-21T18:34:04.853Z,17.70
2019-01-21T18:36:31.519Z,17.13
2019-01-21T18:38:57.780Z,16.03
2019-01-21T18:41:24.081Z,15.67
2019-01-21T18:43:50.697Z,15.30
2019-01-21T18:46:19.357Z,16.17
2019-01-21T18:48:45.977Z,16.00
2019-01-21T18:51:12.646Z,15.93
2019-01-21T18:53:39.022Z,16.27
2019-01-21T18:56:05.606Z,15.33
2019-01-21T18:58:32.231Z,15.23
2019-01-21T19:00:58.532Z,18.33
2019-01-21T19:03:25.167Z,17.77
2019-01-21T19:05:51.909Z,15.43
2019-01-21T19:08:18.863Z,15.17
2019-01-21T19:10:45.511Z,15.77
2019-01-21T19:13:12.126Z,14.63
2019-01-21T19:15:38.630Z,15.37
2019-01-21T19:18:04.989Z,15.77
2019-01-21T19:20:31.736Z,15.77
2019-01-21T19:22:58.458Z,14.77
2019-01-21T19:25:25.082Z,16.87
2019-01-21T19:27:51.411Z,14.20
2019-01-21T19:30:25.920Z,15.33
2019-01-21T19:32:52.550Z,17.57
2019-01-21T19:35:20.870Z,16.00
2019-01-21T19:37:47.343Z,16.10
2019-01-21T19:40:15.625Z,17.60
2019-01-21T19:42:41.929Z,14.50
2019-01-21T19:45:09.286Z,15.83
2019-01-21T19:47:35.574Z,16.63
2019-01-21T19:50:03.885Z,15.53
2019-01-21T19:52:31.317Z,16.23
2019-01-21T19:54:57.582Z,14.50
2019-01-21T19:57:24.498Z,16.20
2019-01-21T19:59:51.118Z,15.30
2019-01-21T20:02:17.775Z,17.17
2019-01-21T20:04:44.035Z,16.93
2019-01-21T20:07:10.325Z,19.33
2019-01-21T20:09:36.634Z,16.97
2019-01-21T20:12:03.259Z,16.17
2019-01-21T20:14:29.511Z,16.70
2019-01-21T20:16:56.180Z,15.80
2019-01-21T20:19:22.782Z,15.13
2019-01-21T20:21:49.456Z,16.10
2019-01-21T20:24:16.360Z,15.40
2019-01-21T20:26:42.957Z,16.27
2019-01-21T20:29:09.589Z,16.83
2019-01-21T20:31:38.639Z,16.90
2019-01-21T20:34:06.443Z,17.73
2019-01-21T20:36:33.009Z,16.07
2019-01-21T20:38:59.621Z,15.80
2019-01-21T20:41:27.371Z,17.07
2019-01-21T20:43:53.601Z,16.50
2019-01-21T20:46:20.221Z,16.83
2019-01-21T20:48:46.937Z,17.90
2019-01-21T20:51:13.558Z,15.97
2019-01-21T20:53:40.205Z,17.57
2019-01-21T20:56:08.170Z,17.63
2019-01-21T20:58:35.145Z,16.23
2019-01-21T21:01:01.783Z,16.77
2019-01-21T21:03:29.246Z,17.70
2019-01-21T21:05:55.625Z,15.50
2019-01-21T21:08:22.281Z,15.20
2019-01-21T21:10:48.826Z,15.83
2019-01-21T21:13:15.605Z,15.57
2019-01-21T21:15:44.147Z,15.03
2019-01-21T21:18:12.570Z,15.23
2019-01-21T21:20:41.125Z,13.90
2019-01-21T21:23:07.532Z,17.20
2019-01-21T21:25:33.775Z,16.67
2019-01-21T21:28:00.438Z,14.77
2019-01-21T21:30:28.821Z,15.40
2019-01-21T21:32:55.607Z,15.20
2019-01-21T21:35:22.968Z,14.97
2019-01-21T21:37:49.942Z,15.33
2019-01-21T21:40:17.771Z,16.80
2019-01-21T21:42:44.422Z,17.00
2019-01-21T21:45:11.940Z,17.00
2019-01-21T21:47:39.091Z,16.60
2019-01-21T21:50:14.581Z,15.87
2019-01-21T21:52:41.233Z,15.70
2019-01-21T21:55:09.045Z,16.53
2019-01-21T21:57:37.182Z,15.73
2019-01-21T22:00:08.633Z,16.97
2019-01-21T22:02:35.980Z,16.00
2019-01-21T22:05:04.353Z,15.07
2019-01-21T22:07:30.993Z,15.90
2019-01-21T22:09:57.369Z,16.63
2019-01-21T22:12:24.438Z,15.67
2019-01-21T22:14:51.096Z,15.77
2019-01-21T22:17:17.614Z,14.50
2019-01-21T22:19:44.281Z,16.00
2019-01-21T22:22:10.881Z,15.10
2019-01-21T22:24:37.821Z,14.67
2019-01-21T22:27:04.520Z,15.50
2019-01-21T22:29:31.157Z,17.03
2019-01-21T22:31:57.889Z,14.97
2019-01-21T22:34:24.530Z,14.57
2019-01-21T22:36:50.786Z,14.70
2019-01-21T22:39:17.077Z,14.90
2019-01-21T22:41:43.756Z,15.33
2019-01-21T22:44:10.059Z,16.23
2019-01-21T22:46:36.329Z,15.70
2019-01-21T22:49:03.282Z,15.43
2019-01-21T22:51:29.902Z,15.40
2019-01-21T22:53:56.186Z,15.57
2019-01-21T22:56:22.446Z,16.20
2019-01-21T22:58:49.335Z,14.87
2019-01-21T23:01:19.392Z,14.50
2019-01-21T23:03:46.069Z,15.60
2019-01-21T23:06:12.441Z,14.80
2019-01-21T23:08:38.729Z,15.33
2019-01-21T23:11:05.368Z,13.97
2019-01-21T23:13:32.017Z,15.77
2019-01-21T23:15:58.546Z,15.30
2019-01-21T23:18:25.054Z,17.10
2019-01-21T23:20:51.525Z,15.60
2019-01-21T23:23:19.684Z,16.27
2019-01-21T23:25:46.341Z,16.03
2019-01-21T23:28:12.602Z,17.53
2019-01-21T23:30:39.247Z,16.73
2019-01-21T23:33:05.518Z,14.53
2019-01-21T23:35:32.478Z,17.60
2019-01-21T23:37:58.746Z,16.30
2019-01-21T23:40:25.074Z,16.63
2019-01-21T23:42:51.790Z,15.40
2019-01-21T23:45:19.302Z,14.17
2019-01-21T23:47:45.942Z,14.40
2019-01-21T23:50:13.277Z,16.17
2019-01-21T23:52:39.734Z,14.40
2019-01-21T23:55:07.485Z,15.60
2019-01-21T23:57:33.846Z,13.40
